Time;durP1;ratioP1;P1;durP2;ratioP2;P2;SDS_P1;SDS_P2;PMS_P1;PMS_P2;Temp;Humidity;BMP_temperature;BMP_pressure;BME280_temperature;BME280_humidity;BME280_pressure;Samples;Min_cycle;Max_cycle;Signal;HPM_P1;HPM_P2
2021/01/14 00:00:16;;;;;;;6.30;2.10;;;;;;;-0.23;79.01;100091.94;5061567;28;20476;-67
2021/01/14 00:02:43;;;;;;;3.10;1.60;;;;;;;-0.19;79.22;100090.88;5063727;28;20520;-67
2021/01/14 00:05:11;;;;;;;6.93;1.50;;;;;;;-0.18;79.12;100097.81;5063246;28;20774;-68
2021/01/14 00:07:37;;;;;;;5.30;1.67;;;;;;;-0.20;79.19;100103.16;5063111;28;20484;-67
2021/01/14 00:10:06;;;;;;;7.40;1.87;;;;;;;-0.21;78.93;100105.84;5064212;28;20572;-67
2021/01/14 00:12:32;;;;;;;4.17;1.93;;;;;;;-0.35;80.06;100101.25;5063216;28;20515;-67
2021/01/14 00:14:58;;;;;;;7.43;1.95;;;;;;;-0.46;80.41;100101.78;5063082;28;20477;-67
2021/01/14 00:17:25;;;;;;;4.87;1.50;;;;;;;-0.57;81.10;100099.69;5062613;28;20249;-68
2021/01/14 00:19:51;;;;;;;4.17;1.40;;;;;;;-0.69;81.75;100099.44;5063713;28;20530;-67
2021/01/14 00:22:17;;;;;;;2.40;1.90;;;;;;;-0.78;82.17;100106.81;5061767;28;20846;-67
2021/01/14 00:24:43;;;;;;;5.10;1.77;;;;;;;-0.81;82.29;100106.09;5063181;28;20504;-67
2021/01/14 00:27:11;;;;;;;6.57;2.30;;;;;;;-0.82;82.63;100113.09;5061413;28;20258;-67
2021/01/14 00:29:37;;;;;;;8.02;1.58;;;;;;;-0.93;82.90;100122.44;5062560;28;20449;-67
2021/01/14 00:32:04;;;;;;;4.95;1.60;;;;;;;-0.99;83.60;100126.16;5061464;28;20331;-68
2021/01/14 00:34:30;;;;;;;13.20;2.73;;;;;;;-0.96;83.52;100126.88;5062716;28;20199;-67
2021/01/14 00:39:40;;;;;;;7.35;1.50;;;;;;;-1.02;84.38;100134.19;5064308;28;20209;-67
2021/01/14 00:42:06;;;;;;;8.00;1.60;;;;;;;-1.08;84.59;100132.69;5063009;28;20246;-67
2021/01/14 00:44:34;;;;;;;5.80;1.80;;;;;;;-1.05;84.55;100137.78;5063609;28;20206;-67
2021/01/14 00:47:00;;;;;;;6.27;1.60;;;;;;;-1.05;84.36;100145.66;5062637;28;20238;-67
2021/01/14 00:49:27;;;;;;;2.05;1.23;;;;;;;-1.10;84.75;100150.28;5064148;28;20536;-67
2021/01/14 00:51:53;;;;;;;7.88;2.72;;;;;;;-1.13;85.07;100150.41;5062833;28;20230;-67
2021/01/14 00:54:19;;;;;;;8.10;2.38;;;;;;;-1.18;85.21;100145.38;5062734;28;20202;-68
2021/01/14 00:56:46;;;;;;;5.38;1.92;;;;;;;-1.18;85.19;100150.63;5062594;28;20560;-67
2021/01/14 00:59:12;;;;;;;9.10;1.70;;;;;;;-1.15;85.08;100165.38;5062812;28;20305;-67
2021/01/14 01:01:41;;;;;;;8.50;1.88;;;;;;;-1.24;85.67;100165.78;5061877;28;20814;-67
2021/01/14 01:04:07;;;;;;;3.47;1.63;;;;;;;-1.28;85.88;100161.59;5064091;28;20218;-67
2021/01/14 01:06:35;;;;;;;5.87;1.83;;;;;;;-1.33;86.01;100170.50;5062344;28;20261;-67
2021/01/14 01:09:02;;;;;;;4.07;1.83;;;;;;;-1.22;85.45;100174.44;5063970;28;20457;-67
2021/01/14 01:11:28;;;;;;;5.47;1.85;;;;;;;-1.18;85.45;100171.63;5062211;28;20603;-67
2021/01/14 01:13:54;;;;;;;7.40;1.70;;;;;;;-1.07;85.18;100179.00;5062973;28;20214;-67
2021/01/14 01:16:20;;;;;;;12.10;2.15;;;;;;;-0.97;84.82;100190.78;5061571;28;20430;-67
2021/01/14 01:18:48;;;;;;;4.18;2.22;;;;;;;-0.91;84.77;100184.41;5063309;28;20245;-67
2021/01/14 01:21:15;;;;;;;7.90;1.65;;;;;;;-0.85;84.35;100197.25;5061887;28;20708;-67
2021/01/14 01:23:41;;;;;;;6.03;2.03;;;;;;;-0.85;84.20;100199.88;5063093;28;20269;-67
2021/01/14 01:26:08;;;;;;;4.32;1.75;;;;;;;-0.83;84.08;100210.31;5061808;28;20254;-67
2021/01/14 01:28:34;;;;;;;6.00;1.73;;;;;;;-0.76;83.40;100204.72;5062655;28;20218;-67
2021/01/14 01:31:00;;;;;;;6.38;1.90;;;;;;;-0.71;83.22;100211.50;5062167;28;20469;-67
2021/01/14 01:33:27;;;;;;;2.70;1.37;;;;;;;-0.71;82.66;100228.13;5060485;28;20244;-67
2021/01/14 01:35:55;;;;;;;4.35;2.03;;;;;;;-0.72;82.61;100230.84;5061219;28;21987;-67
2021/01/14 01:38:22;;;;;;;6.38;2.03;;;;;;;-0.63;81.64;100225.16;5062586;28;20660;-67
2021/01/14 01:40:54;;;;;;;8.83;2.70;;;;;;;-0.54;81.17;100232.59;5061769;28;20313;-67
2021/01/14 01:43:20;;;;;;;1.90;1.70;;;;;;;-0.62;81.48;100230.34;5061742;28;20477;-68
2021/01/14 01:45:46;;;;;;;8.37;2.70;;;;;;;-0.64;81.53;100229.56;5061313;28;20289;-67
2021/01/14 01:48:13;;;;;;;4.68;2.10;;;;;;;-0.74;81.52;100236.16;5062624;28;20867;-67
2021/01/14 01:50:39;;;;;;;7.70;2.10;;;;;;;-0.85;82.03;100236.63;5061137;28;20256;-67
2021/01/14 01:53:06;;;;;;;7.80;2.15;;;;;;;-0.90;81.68;100237.72;5062308;28;20461;-67
2021/01/14 01:55:33;;;;;;;2.55;1.75;;;;;;;-0.97;82.04;100231.94;5061153;28;20365;-66
2021/01/14 01:57:59;;;;;;;5.20;2.13;;;;;;;-0.97;82.43;100232.78;5062056;28;20548;-68
2021/01/14 02:00:25;;;;;;;3.03;1.90;;;;;;;-0.98;82.57;100245.97;5060877;28;20536;-67
2021/01/14 02:02:52;;;;;;;13.52;2.25;;;;;;;-1.03;82.58;100246.16;5061676;28;20253;-67
2021/01/14 02:05:18;;;;;;;2.78;1.90;;;;;;;-1.00;82.86;100251.28;5061337;28;20555;-67
2021/01/14 02:07:52;;;;;;;4.20;2.33;;;;;;;-0.90;82.21;100250.84;5062198;28;20267;-67
2021/01/14 02:10:24;;;;;;;4.50;2.00;;;;;;;-0.87;81.90;100259.44;5061233;28;20207;-68
2021/01/14 02:12:57;;;;;;;4.22;1.60;;;;;;;-0.80;81.84;100260.91;5062225;28;20233;-66
2021/01/14 02:15:23;;;;;;;10.38;2.28;;;;;;;-0.81;82.07;100263.59;5060915;28;20269;-67
2021/01/14 02:17:51;;;;;;;4.20;2.13;;;;;;;-0.73;81.36;100273.75;5062462;28;20277;-67
2021/01/14 02:20:18;;;;;;;11.68;2.45;;;;;;;-0.65;80.85;100272.47;5061093;28;20627;-67
2021/01/14 02:22:45;;;;;;;5.35;1.85;;;;;;;-0.64;80.24;100265.47;5062468;28;20665;-68
2021/01/14 02:25:15;;;;;;;6.07;2.30;;;;;;;-0.61;80.86;100274.06;5061340;28;20264;-67
2021/01/14 02:27:43;;;;;;;10.50;3.87;;;;;;;-0.60;79.74;100278.38;5042426;28;20226;-67
2021/01/14 02:30:10;;;;;;;9.40;2.30;;;;;;;-0.59;79.94;100284.47;5042453;28;20469;-67
2021/01/14 02:32:37;;;;;;;3.87;1.97;;;;;;;-0.49;79.31;100280.50;5062388;28;20202;-67
2021/01/14 02:35:04;;;;;;;8.70;2.58;;;;;;;-0.44;78.63;100268.03;5062197;28;20533;-67
2021/01/14 02:37:30;;;;;;;6.57;2.40;;;;;;;-0.52;78.93;100282.44;5061152;28;20273;-67
2021/01/14 02:39:56;;;;;;;4.32;2.30;;;;;;;-0.44;78.15;100277.69;5062198;28;20483;-67
2021/01/14 02:42:22;;;;;;;5.03;2.00;;;;;;;-0.55;78.24;100280.81;5060379;28;20250;-67
2021/01/14 02:44:49;;;;;;;8.90;2.33;;;;;;;-0.48;78.94;100284.84;5061809;28;20460;-68
2021/01/14 02:47:17;;;;;;;5.75;1.85;;;;;;;-0.54;78.74;100285.13;5060306;28;20492;-67
2021/01/14 02:49:49;;;;;;;12.87;2.10;;;;;;;-0.57;79.39;100296.63;5062139;28;20670;-67
2021/01/14 02:52:16;;;;;;;3.67;2.07;;;;;;;-0.62;78.06;100287.25;5060177;28;20480;-67
2021/01/14 02:54:43;;;;;;;5.13;2.57;;;;;;;-0.64;78.41;100299.63;5062347;28;20893;-67
2021/01/14 02:57:11;;;;;;;3.30;2.00;;;;;;;-0.65;78.82;100301.38;5060389;28;20503;-67
2021/01/14 02:59:38;;;;;;;4.60;2.20;;;;;;;-0.76;79.02;100299.22;5061459;28;20220;-68
2021/01/14 03:02:05;;;;;;;2.47;1.63;;;;;;;-0.73;79.79;100308.72;5059949;28;20539;-68
2021/01/14 03:04:31;;;;;;;3.47;1.73;;;;;;;-0.87;80.36;100316.34;5062120;28;20472;-67
2021/01/14 03:06:57;;;;;;;3.17;1.90;;;;;;;-0.93;81.03;100314.00;5060454;28;20233;-67
2021/01/14 03:09:24;;;;;;;8.50;3.92;;;;;;;-0.98;80.54;100311.56;5061953;28;20985;-68
2021/01/14 03:11:50;;;;;;;8.57;2.13;;;;;;;-1.06;81.09;100316.28;5060691;28;20324;-68
2021/01/14 03:14:16;;;;;;;8.23;2.88;;;;;;;-1.06;80.56;100316.28;5060856;28;20845;-67
2021/01/14 03:16:42;;;;;;;8.57;2.25;;;;;;;-1.14;80.68;100322.72;5060665;28;20289;-67
2021/01/14 03:19:09;;;;;;;3.72;2.10;;;;;;;-1.27;80.87;100318.88;5065626;28;20269;-67
2021/01/14 03:21:35;;;;;;;6.55;2.53;;;;;;;-1.28;81.30;100309.31;5064588;28;20261;-67
2021/01/14 03:24:01;;;;;;;4.55;2.22;;;;;;;-1.25;80.66;100313.56;5065224;28;20315;-68
2021/01/14 03:26:27;;;;;;;7.60;2.20;;;;;;;-1.33;81.32;100319.16;5064429;28;20230;-67
2021/01/14 03:28:53;;;;;;;2.35;1.90;;;;;;;-1.37;81.63;100307.94;5064597;28;20249;-68
2021/01/14 03:31:20;;;;;;;8.82;2.40;;;;;;;-1.36;81.30;100314.88;5064424;28;20257;-67
2021/01/14 03:33:47;;;;;;;5.95;2.13;;;;;;;-1.45;82.05;100317.88;5065159;28;20215;-68
2021/01/14 03:36:18;;;;;;;3.72;2.10;;;;;;;-1.42;81.58;100319.53;5063283;28;20711;-67
2021/01/14 03:38:44;;;;;;;5.05;1.95;;;;;;;-1.41;81.45;100327.31;5065373;28;20240;-67
2021/01/14 03:41:11;;;;;;;5.53;2.28;;;;;;;-1.47;81.67;100331.97;5064205;28;20256;-67
2021/01/14 03:43:38;;;;;;;5.22;2.35;;;;;;;-1.50;81.66;100327.69;5064424;28;20256;-67
2021/01/14 03:46:08;;;;;;;5.97;2.22;;;;;;;-1.43;81.57;100334.41;5064316;28;20241;-67
2021/01/14 03:48:38;;;;;;;3.33;1.65;;;;;;;-1.41;81.39;100340.44;5064827;28;20207;-67
2021/01/14 03:51:04;;;;;;;2.97;1.70;;;;;;;-1.44;81.63;100340.56;5064213;28;20284;-67
2021/01/14 03:53:31;;;;;;;5.45;2.38;;;;;;;-1.44;81.43;100347.56;5064765;28;20234;-67
2021/01/14 03:55:58;;;;;;;5.47;2.33;;;;;;;-1.44;81.47;100347.56;5063633;28;20234;-67
2021/01/14 03:58:24;;;;;;;5.07;2.20;;;;;;;-1.46;81.56;100342.38;5064142;28;20249;-67
2021/01/14 04:00:50;;;;;;;7.88;4.53;;;;;;;-1.45;81.80;100349.34;5063603;28;20707;-67
2021/01/14 04:03:17;;;;;;;4.13;1.80;;;;;;;-1.46;81.79;100354.66;5064709;28;20293;-67
2021/01/14 04:05:43;;;;;;;8.52;2.35;;;;;;;-1.48;81.69;100362.56;5063157;28;20234;-67
2021/01/14 04:08:09;;;;;;;4.45;1.98;;;;;;;-1.38;81.79;100352.56;5064574;28;20688;-67
2021/01/14 04:10:36;;;;;;;4.80;2.25;;;;;;;-1.43;81.80;100359.78;5063301;28;20238;-68
2021/01/14 04:13:02;;;;;;;4.30;2.30;;;;;;;-1.54;82.21;100360.22;5064553;28;20341;-68
2021/01/14 04:15:28;;;;;;;8.23;2.75;;;;;;;-1.57;82.40;100368.19;5062791;28;20290;-68
2021/01/14 04:17:54;;;;;;;10.05;2.33;;;;;;;-1.67;82.75;100370.31;5064496;28;20264;-68
2021/01/14 04:20:21;;;;;;;3.72;2.50;;;;;;;-1.72;83.08;100374.88;5063177;28;20241;-67
2021/01/14 04:22:50;;;;;;;5.60;2.00;;;;;;;-1.85;83.60;100379.75;5064536;28;20222;-68
2021/01/14 04:25:16;;;;;;;5.75;2.03;;;;;;;-2.00;84.21;100381.16;5063474;28;20297;-67
2021/01/14 04:27:43;;;;;;;8.10;2.20;;;;;;;-2.08;84.57;100381.47;5064316;28;20305;-68
2021/01/14 04:30:10;;;;;;;5.13;2.42;;;;;;;-2.01;84.79;100384.72;5061377;28;20759;-68
2021/01/14 04:32:36;;;;;;;5.20;2.20;;;;;;;-1.94;84.39;100390.59;5064550;28;20198;-68
2021/01/14 04:35:02;;;;;;;5.35;2.00;;;;;;;-1.88;84.02;100384.25;5044440;28;20249;-68
2021/01/14 04:37:29;;;;;;;4.90;2.22;;;;;;;-1.69;83.12;100384.41;5045941;28;20245;-67
2021/01/14 04:39:55;;;;;;;4.55;1.90;;;;;;;-1.65;82.81;100386.84;5064637;28;20194;-68
2021/01/14 04:42:22;;;;;;;6.38;2.70;;;;;;;-1.46;82.28;100383.50;5063064;28;20270;-68
2021/01/14 04:44:49;;;;;;;7.72;2.65;;;;;;;-1.40;81.68;100391.13;5063951;28;20575;-68
2021/01/14 04:47:16;;;;;;;4.25;2.60;;;;;;;-1.39;81.85;100392.81;5062270;28;20230;-67
2021/01/14 04:49:42;;;;;;;6.68;2.53;;;;;;;-1.42;82.19;100393.81;5064254;28;20245;-68
2021/01/14 04:52:16;;;;;;;7.60;2.70;;;;;;;-1.26;81.85;100404.53;5063019;28;20307;-68
2021/01/14 04:54:43;;;;;;;4.50;2.38;;;;;;;-1.07;80.75;100403.81;5064241;28;20199;-68
2021/01/14 04:57:18;;;;;;;6.73;2.47;;;;;;;-1.00;80.46;100402.63;5062762;28;20226;-68
2021/01/14 04:59:47;;;;;;;6.63;2.53;;;;;;;-0.99;80.46;100417.44;5063054;28;20547;-68
2021/01/14 05:02:17;;;;;;;5.68;2.75;;;;;;;-0.96;80.27;100404.19;5062434;28;20540;-68
2021/01/14 05:04:45;;;;;;;7.07;2.30;;;;;;;-1.07;80.54;100403.81;5063765;28;20233;-68
2021/01/14 05:07:14;;;;;;;4.35;2.45;;;;;;;-1.15;81.03;100407.59;5062722;28;20409;-68
2021/01/14 05:09:42;;;;;;;7.10;3.00;;;;;;;-1.14;81.28;100398.78;5063532;28;20316;-68
2021/01/14 05:12:08;;;;;;;4.07;2.53;;;;;;;-1.16;81.23;100400.63;5061996;28;20584;-68
2021/01/14 05:14:34;;;;;;;4.93;2.73;;;;;;;-1.15;80.93;100401.47;5062593;28;20245;-68
2021/01/14 05:17:02;;;;;;;6.95;2.60;;;;;;;-1.13;81.19;100397.00;5062463;28;20557;-68
2021/01/14 05:19:29;;;;;;;8.60;2.77;;;;;;;-1.22;81.60;100405.25;5063791;28;20671;-68
2021/01/14 05:21:59;;;;;;;3.15;2.22;;;;;;;-1.17;81.35;100412.03;5062450;28;20496;-68
2021/01/14 05:24:25;;;;;;;8.23;2.30;;;;;;;-1.20;81.68;100414.78;5063034;28;20634;-68
2021/01/14 05:26:51;;;;;;;6.50;2.43;;;;;;;-1.13;81.58;100415.38;5062155;28;20261;-68
2021/01/14 05:29:18;;;;;;;5.03;2.60;;;;;;;-1.16;81.52;100415.53;5062451;28;20477;-68
2021/01/14 05:31:44;;;;;;;7.25;2.20;;;;;;;-1.09;81.57;100421.34;5062246;28;20712;-68
2021/01/14 05:34:10;;;;;;;6.93;2.83;;;;;;;-1.16;81.85;100439.13;5062663;28;20249;-68
2021/01/14 05:36:57;;;;;;;8.07;3.05;;;;;;;-1.03;81.19;100432.47;5061601;28;20313;-68
2021/01/14 05:39:24;;;;;;;5.43;1.98;;;;;;;-0.95;81.00;100430.38;5063512;28;20210;-68
2021/01/14 05:41:51;;;;;;;3.35;2.97;;;;;;;-0.89;80.54;100437.13;5061449;28;20339;-68
2021/01/14 05:44:18;;;;;;;9.40;2.47;;;;;;;-0.85;80.37;100435.25;5062921;28;20214;-67
2021/01/14 05:46:44;;;;;;;4.55;2.65;;;;;;;-0.71;80.21;100437.28;5061506;28;20226;-68
2021/01/14 05:49:11;;;;;;;5.85;3.40;;;;;;;-0.73;80.26;100439.97;5063195;28;20252;-68
2021/01/14 05:51:37;;;;;;;8.23;3.00;;;;;;;-0.70;80.03;100445.09;5061649;28;20241;-68
2021/01/14 05:54:06;;;;;;;6.03;3.53;;;;;;;-0.64;80.15;100449.28;5062685;28;20210;-68
2021/01/14 05:56:37;;;;;;;5.87;2.80;;;;;;;-0.63;79.94;100453.59;5061478;28;20476;-67
2021/01/14 05:59:04;;;;;;;3.90;2.40;;;;;;;-0.68;80.08;100455.56;5061207;28;20507;-68
2021/01/14 06:01:30;;;;;;;10.10;3.08;;;;;;;-0.67;80.09;100460.75;5061183;28;20551;-68
2021/01/14 06:04:13;;;;;;;3.47;2.55;;;;;;;-0.62;80.04;100450.06;5062315;28;20241;-68
2021/01/14 06:06:41;;;;;;;5.03;3.33;;;;;;;-0.56;80.11;100462.91;5061358;28;20238;-68
2021/01/14 06:09:08;;;;;;;6.50;3.50;;;;;;;-0.57;80.05;100466.47;5062564;28;20464;-68
2021/01/14 06:11:34;;;;;;;5.82;2.90;;;;;;;-0.67;80.70;100468.63;5060794;28;20496;-67
2021/01/14 06:14:01;;;;;;;3.78;2.83;;;;;;;-0.69;80.65;100464.38;5055920;28;20242;-67
2021/01/14 06:16:27;;;;;;;4.25;2.42;;;;;;;-0.65;80.78;100469.41;5059548;28;20245;-67
2021/01/14 06:19:06;;;;;;;5.35;3.10;;;;;;;-0.66;80.77;100469.47;5060128;28;20482;-68
2021/01/14 06:21:43;;;;;;;6.07;3.10;;;;;;;-0.64;80.53;100457.16;5059229;28;20708;-67
2021/01/14 06:24:18;;;;;;;4.80;3.30;;;;;;;-0.66;80.69;100470.34;5061594;28;20316;-67
2021/01/14 06:26:45;;;;;;;8.52;3.35;;;;;;;-0.59;80.71;100479.66;5059529;28;20800;-68
2021/01/14 06:29:22;;;;;;;4.10;3.17;;;;;;;-0.60;80.68;100475.31;5060301;28;20634;-70
2021/01/14 06:31:48;;;;;;;7.45;3.38;;;;;;;-0.58;80.85;100483.13;5059825;28;20253;-70
2021/01/14 06:34:16;;;;;;;7.55;3.17;;;;;;;-0.55;80.58;100485.66;5060495;28;20224;-70
2021/01/14 06:36:46;;;;;;;3.63;3.08;;;;;;;-0.49;80.57;100492.41;5059383;28;20268;-69
2021/01/14 06:39:14;;;;;;;4.40;3.00;;;;;;;-0.50;80.32;100483.69;5061296;28;20217;-69
2021/01/14 06:41:43;;;;;;;4.95;3.08;;;;;;;-0.40;80.50;100489.38;5059810;28;20525;-71
2021/01/14 06:44:10;;;;;;;5.43;4.30;;;;;;;-0.44;81.06;100496.53;5060112;28;20665;-69
2021/01/14 06:46:37;;;;;;;8.45;3.58;;;;;;;-0.44;80.74;100500.94;5059477;28;20476;-68
2021/01/14 06:49:08;;;;;;;10.52;3.55;;;;;;;-0.42;80.78;100507.84;5060626;28;20268;-67
2021/01/14 06:51:56;;;;;;;7.43;3.90;;;;;;;-0.39;80.94;100518.22;5057880;28;20234;-68
2021/01/14 06:54:23;;;;;;;7.72;3.35;;;;;;;-0.34;80.37;100502.28;5061638;28;20448;-69
2021/01/14 06:56:56;;;;;;;6.40;3.60;;;;;;;-0.45;80.53;100518.47;5064157;28;20234;-69
2021/01/14 06:59:23;;;;;;;6.03;3.43;;;;;;;-0.45;80.91;100515.84;5047642;28;20440;-69
2021/01/14 07:02:09;;;;;;;2.92;2.63;;;;;;;-0.46;80.65;100519.38;5063196;28;20551;-68
2021/01/14 07:04:42;;;;;;;5.82;3.10;;;;;;;-0.46;80.92;100536.94;5065053;28;20210;-69
2021/01/14 07:07:29;;;;;;;4.70;3.30;;;;;;;-0.51;80.96;100534.47;5063080;28;20284;-68
2021/01/14 07:10:05;;;;;;;5.63;3.50;;;;;;;-0.66;81.26;100543.84;5064940;28;20441;-69
2021/01/14 07:12:34;;;;;;;3.40;3.10;;;;;;;-0.49;81.13;100550.19;5063461;28;20460;-69
2021/01/14 07:15:05;;;;;;;6.63;3.97;;;;;;;-0.36;80.75;100553.16;5063688;28;20214;-69
2021/01/14 07:17:33;;;;;;;7.43;3.30;;;;;;;-0.38;80.59;100555.88;5063764;28;20629;-69
2021/01/14 07:20:01;;;;;;;6.53;3.80;;;;;;;-0.47;81.07;100557.09;5064567;28;20506;-69
2021/01/14 07:22:30;;;;;;;5.67;3.67;;;;;;;-0.40;81.06;100565.56;5062365;28;20492;-70
2021/01/14 07:24:58;;;;;;;4.18;3.00;;;;;;;-0.39;80.96;100567.28;5064782;28;20452;-68
2021/01/14 07:27:24;;;;;;;5.37;3.47;;;;;;;-0.30;81.02;100580.03;5063112;28;20328;-67
2021/01/14 07:29:51;;;;;;;6.23;3.57;;;;;;;-0.24;80.63;100579.78;5063346;28;20518;-70
2021/01/14 07:32:18;;;;;;;4.73;3.90;;;;;;;-0.34;80.88;100580.22;5062877;28;20483;-72
2021/01/14 07:34:44;;;;;;;9.77;3.70;;;;;;;-0.36;81.07;100584.66;5063973;28;20468;-74
2021/01/14 07:37:26;;;;;;;7.90;4.72;;;;;;;-0.42;81.55;100589.28;5053073;28;21377;-68
2021/01/14 07:39:54;;;;;;;9.05;4.45;;;;;;;-0.30;81.14;100597.56;5020035;28;20212;-70
2021/01/14 07:42:22;;;;;;;6.60;4.87;;;;;;;-0.27;81.58;100608.81;5017553;28;20667;-70
2021/01/14 07:44:53;;;;;;;13.27;4.20;;;;;;;0.13;82.61;100608.91;5020176;28;20446;-71
2021/01/14 07:47:30;;;;;;;7.50;4.60;;;;;;;0.34;81.72;100600.09;5019943;28;20469;-71
2021/01/14 07:49:58;;;;;;;7.23;4.87;;;;;;;0.40;79.44;100606.00;5016055;28;20455;-72
2021/01/14 07:52:32;;;;;;;6.70;4.10;;;;;;;0.35;78.96;100614.97;5014948;28;20478;-70
2021/01/14 07:55:00;;;;;;;6.93;4.13;;;;;;;0.14;79.42;100615.88;5017165;28;20473;-69
2021/01/14 07:57:28;;;;;;;7.37;3.97;;;;;;;-0.03;80.22;100611.34;5016247;28;20488;-69
2021/01/14 07:59:57;;;;;;;7.78;4.30;;;;;;;-0.07;80.36;100613.25;5018402;28;21066;-70
2021/01/14 08:02:23;;;;;;;6.73;4.40;;;;;;;-0.26;81.06;100628.91;5016631;28;20259;-70
2021/01/14 08:04:50;;;;;;;12.63;4.53;;;;;;;-0.35;81.81;100631.06;5016023;28;20458;-69
2021/01/14 08:07:37;;;;;;;8.00;4.10;;;;;;;-0.25;81.32;100629.75;5016677;28;20823;-69
2021/01/14 08:10:15;;;;;;;8.45;4.68;;;;;;;-0.25;81.47;100648.16;4958360;28;20469;-66
2021/01/14 08:12:45;;;;;;;6.53;5.40;;;;;;;-0.13;81.35;100642.41;4954483;29;20272;-68
2021/01/14 08:15:35;;;;;;;6.53;4.60;;;;;;;-0.18;81.65;100652.25;4953903;28;20233;-67
2021/01/14 08:18:10;;;;;;;6.57;4.50;;;;;;;-0.14;81.38;100650.34;4977775;28;20452;-67
2021/01/14 08:20:36;;;;;;;9.33;5.17;;;;;;;-0.19;81.34;100650.56;4973493;28;20491;-68
2021/01/14 08:23:02;;;;;;;11.13;5.70;;;;;;;-0.10;81.14;100649.31;4980652;28;20538;-68
2021/01/14 08:25:34;;;;;;;9.07;4.97;;;;;;;-0.16;81.49;100650.41;4977358;28;20492;-67
2021/01/14 08:28:03;;;;;;;11.20;4.90;;;;;;;-0.17;81.89;100656.59;4974303;28;20531;-76
2021/01/14 08:30:39;;;;;;;11.05;4.78;;;;;;;-0.20;81.85;100656.72;4976755;28;20479;-68
2021/01/14 08:33:08;;;;;;;7.88;5.25;;;;;;;-0.26;82.08;100652.56;4977201;28;20311;-67
2021/01/14 08:35:37;;;;;;;7.82;5.03;;;;;;;-0.18;82.14;100668.00;4978807;28;20409;-67
2021/01/14 08:38:13;;;;;;;10.90;6.20;;;;;;;-0.17;81.91;100675.00;4979146;28;20221;-65
2021/01/14 08:40:41;;;;;;;8.13;6.03;;;;;;;0.01;81.44;100675.16;4976865;28;20475;-72
2021/01/14 08:43:08;;;;;;;9.23;5.10;;;;;;;0.17;80.94;100678.84;4981745;28;20522;-69
2021/01/14 08:45:37;;;;;;;7.60;5.60;;;;;;;0.32;80.62;100672.97;4980366;28;20476;-70
2021/01/14 08:48:08;;;;;;;7.63;5.10;;;;;;;0.18;80.81;100685.84;5047001;28;20449;-69
2021/01/14 08:50:45;;;;;;;11.73;5.53;;;;;;;0.15;80.81;100685.94;5057757;28;20465;-69
2021/01/14 08:53:12;;;;;;;8.30;5.45;;;;;;;0.29;80.63;100686.22;5061972;28;20294;-70
2021/01/14 08:55:42;;;;;;;11.27;5.75;;;;;;;0.33;80.46;100692.22;5058384;28;20230;-68
2021/01/14 08:58:08;;;;;;;8.43;6.05;;;;;;;0.36;80.24;100707.88;5060511;28;20270;-68
2021/01/14 09:00:37;;;;;;;10.00;6.47;;;;;;;0.28;80.56;100699.44;5054482;28;20234;-72
2021/01/14 09:03:04;;;;;;;10.70;5.75;;;;;;;0.28;80.18;100699.44;5052869;28;20481;-70
2021/01/14 09:05:31;;;;;;;8.90;6.03;;;;;;;0.08;81.07;100700.28;5055260;28;20230;-70
2021/01/14 09:08:09;;;;;;;10.63;5.80;;;;;;;0.33;80.69;100705.38;5061725;28;20472;-69
2021/01/14 09:10:42;;;;;;;12.10;6.20;;;;;;;0.42;80.07;100717.28;5058288;28;20496;-69
2021/01/14 09:13:08;;;;;;;8.73;5.50;;;;;;;0.41;80.24;100719.06;5060329;28;20453;-71
2021/01/14 09:15:36;;;;;;;11.60;6.97;;;;;;;0.28;80.80;100713.47;5056620;28;20464;-71
2021/01/14 09:18:02;;;;;;;9.70;6.40;;;;;;;0.41;80.31;100710.31;5061463;28;20460;-71
2021/01/14 09:20:29;;;;;;;10.83;7.10;;;;;;;0.48;80.00;100709.97;5059854;28;20468;-68
2021/01/14 09:22:58;;;;;;;20.17;7.43;;;;;;;0.56;80.28;100714.94;5061432;28;20495;-66
2021/01/14 09:25:34;;;;;;;10.57;6.73;;;;;;;0.34;80.80;100718.44;5060311;28;20476;-64
2021/01/14 09:28:06;;;;;;;11.53;6.37;;;;;;;0.65;80.40;100719.78;5054907;28;20461;-66
2021/01/14 09:30:32;;;;;;;11.05;6.53;;;;;;;0.61;80.08;100719.97;5038981;28;20831;-67
2021/01/14 09:33:00;;;;;;;12.87;6.80;;;;;;;0.72;79.87;100726.50;5060467;28;20248;-67
2021/01/14 09:35:26;;;;;;;12.17;6.90;;;;;;;0.80;79.89;100717.41;5058511;28;20468;-67
2021/01/14 09:37:54;;;;;;;13.90;6.70;;;;;;;0.78;79.20;100720.09;5060264;28;20449;-66
2021/01/14 09:40:21;;;;;;;9.70;7.20;;;;;;;0.54;80.31;100732.56;5059152;28;20449;-67
2021/01/14 09:42:49;;;;;;;13.80;7.07;;;;;;;0.72;80.88;100729.13;5059975;28;20483;-66
2021/01/14 09:45:16;;;;;;;12.40;6.80;;;;;;;1.03;79.65;100722.53;5058910;28;20453;-69
2021/01/14 09:47:46;;;;;;;7.73;6.20;;;;;;;1.12;78.66;100722.13;5061549;28;20474;-71
2021/01/14 09:50:15;;;;;;;12.40;6.97;;;;;;;1.13;78.80;100726.47;5058885;28;20461;-70
2021/01/14 09:52:41;;;;;;;16.70;6.63;;;;;;;1.27;77.98;100725.00;5061163;28;20444;-69
2021/01/14 09:55:11;;;;;;;11.60;6.60;;;;;;;1.34;77.98;100731.69;5059430;28;20742;-71
2021/01/14 09:57:38;;;;;;;10.03;7.03;;;;;;;1.16;78.22;100738.63;5059542;28;20808;-70
2021/01/14 10:00:06;;;;;;;13.13;6.90;;;;;;;1.28;78.08;100740.72;5057376;28;20460;-68
2021/01/14 10:02:36;;;;;;;13.80;7.13;;;;;;;1.30;78.04;100740.66;5059588;28;20480;-66
2021/01/14 10:05:06;;;;;;;15.17;7.60;;;;;;;0.98;78.71;100742.09;5058310;28;20488;-65
2021/01/14 10:07:34;;;;;;;10.47;6.93;;;;;;;0.96;78.92;100742.16;5058989;28;20461;-70
2021/01/14 10:10:04;;;;;;;11.03;7.63;;;;;;;0.81;79.73;100741.03;5059372;28;20464;-68
2021/01/14 10:12:33;;;;;;;9.73;7.57;;;;;;;0.83;80.06;100747.09;5058480;28;20465;-69
2021/01/14 10:15:12;;;;;;;12.63;7.87;;;;;;;0.74;80.34;100753.59;5059549;28;20456;-69
2021/01/14 10:17:40;;;;;;;11.30;8.63;;;;;;;0.86;80.29;100760.13;5060156;28;20472;-70
2021/01/14 10:20:07;;;;;;;10.03;7.13;;;;;;;0.82;80.66;100762.97;5058715;28;20494;-70
2021/01/14 10:22:36;;;;;;;16.33;7.87;;;;;;;0.88;80.77;100765.31;5060919;28;20480;-68
2021/01/14 10:25:08;;;;;;;11.97;8.23;;;;;;;1.31;79.11;100766.06;5059265;28;20471;-64
2021/01/14 10:27:34;;;;;;;16.20;7.87;;;;;;;1.16;78.86;100753.59;5055578;28;20510;-64
2021/01/14 10:30:17;;;;;;;11.87;8.73;;;;;;;1.01;80.09;100758.63;5057361;28;20481;-62
2021/01/14 10:32:43;;;;;;;12.77;8.80;;;;;;;0.77;80.64;100754.41;5051179;28;20465;-64
2021/01/14 10:35:22;;;;;;;19.20;9.70;;;;;;;0.97;80.52;100764.91;5056635;28;20472;-69
2021/01/14 10:38:00;;;;;;;15.53;9.20;;;;;;;0.94;80.98;100760.66;5059950;28;20456;-70
2021/01/14 10:40:33;;;;;;;13.70;9.50;;;;;;;1.05;80.58;100759.34;5056592;28;20476;-69
2021/01/14 10:43:00;;;;;;;13.70;9.07;;;;;;;0.93;80.73;100768.63;5056930;28;20491;-67
2021/01/14 10:45:26;;;;;;;16.60;9.33;;;;;;;0.85;80.53;100771.59;5057804;28;20556;-66
2021/01/14 10:48:05;;;;;;;15.07;9.20;;;;;;;1.05;80.04;100768.09;5060097;28;20445;-65
2021/01/14 10:50:33;;;;;;;15.60;9.30;;;;;;;0.98;80.28;100764.00;5059164;28;20650;-65
2021/01/14 10:53:03;;;;;;;16.37;9.40;;;;;;;0.81;81.02;100761.25;5060304;28;20459;-65
2021/01/14 10:55:30;;;;;;;12.10;9.27;;;;;;;0.91;81.68;100768.69;5058406;28;20477;-65
2021/01/14 10:57:58;;;;;;;14.03;9.50;;;;;;;1.03;81.54;100769.09;5060181;28;20494;-65
2021/01/14 11:00:25;;;;;;;13.17;9.77;;;;;;;1.19;81.36;100754.31;5058100;28;21464;-69
2021/01/14 11:02:59;;;;;;;14.70;9.57;;;;;;;1.16;80.86;100761.50;5059868;28;20481;-69
2021/01/14 11:05:39;;;;;;;15.70;10.43;;;;;;;1.11;80.88;100751.16;5056756;28;20491;-67
2021/01/14 11:08:12;;;;;;;23.43;10.50;;;;;;;1.34;80.10;100749.25;5059966;28;20456;-72
2021/01/14 11:10:38;;;;;;;12.13;9.47;;;;;;;1.09;80.27;100747.72;5058657;28;21009;-69
2021/01/14 11:13:06;;;;;;;13.23;10.23;;;;;;;1.19;80.73;100754.31;5059688;28;20934;-69
2021/01/14 11:15:33;;;;;;;16.03;10.23;;;;;;;1.27;79.83;100756.63;5057836;28;20460;-65
2021/01/14 11:18:00;;;;;;;12.83;8.83;;;;;;;1.22;79.97;100753.31;5059771;28;20471;-65
2021/01/14 11:20:26;;;;;;;12.50;9.30;;;;;;;1.22;80.33;100756.81;5058326;28;20477;-65
2021/01/14 11:22:53;;;;;;;16.57;10.50;;;;;;;1.26;80.43;100757.53;5060995;28;20484;-64
2021/01/14 11:25:21;;;;;;;15.53;10.27;;;;;;;1.02;80.76;100749.78;5056881;28;20653;-65
2021/01/14 11:27:47;;;;;;;16.70;10.00;;;;;;;0.92;81.57;100759.88;5060600;28;20445;-66
2021/01/14 11:30:14;;;;;;;16.63;11.20;;;;;;;0.93;81.99;100760.72;5058228;28;20457;-68
2021/01/14 11:32:41;;;;;;;17.93;10.80;;;;;;;1.07;81.48;100749.59;5053810;28;20448;-66